sensor_id;sensor_type;location;lat;lon;timestamp;P1;durP1;ratioP1;P2;durP2;ratioP2
20894;SDS011;10607;42.066;24.742;2023-06-24T00:00:33;12.25;;;10.90;;
20894;SDS011;10607;42.066;24.742;2023-06-24T00:02:58;12.77;;;10.80;;
20894;SDS011;10607;42.066;24.742;2023-06-24T00:05:26;12.52;;;11.10;;
20894;SDS011;10607;42.066;24.742;2023-06-24T00:07:52;12.43;;;10.23;;
20894;SDS011;10607;42.066;24.742;2023-06-24T00:10:17;17.38;;;10.90;;
20894;SDS011;10607;42.066;24.742;2023-06-24T00:12:43;15.70;;;10.25;;
20894;SDS011;10607;42.066;24.742;2023-06-24T00:15:08;12.32;;;10.90;;
20894;SDS011;10607;42.066;24.742;2023-06-24T00:17:37;14.70;;;10.60;;
20894;SDS011;10607;42.066;24.742;2023-06-24T00:20:02;13.80;;;10.10;;
20894;SDS011;10607;42.066;24.742;2023-06-24T00:22:30;11.82;;;10.38;;
20894;SDS011;10607;42.066;24.742;2023-06-24T00:24:55;11.98;;;10.38;;
20894;SDS011;10607;42.066;24.742;2023-06-24T00:27:21;14.52;;;10.30;;
20894;SDS011;10607;42.066;24.742;2023-06-24T00:29:47;15.38;;;10.32;;
20894;SDS011;10607;42.066;24.742;2023-06-24T00:32:12;16.30;;;10.90;;
20894;SDS011;10607;42.066;24.742;2023-06-24T00:34:37;13.25;;;9.85;;
20894;SDS011;10607;42.066;24.742;2023-06-24T00:37:02;11.65;;;9.57;;
20894;SDS011;10607;42.066;24.742;2023-06-24T00:39:28;16.92;;;9.95;;
20894;SDS011;10607;42.066;24.742;2023-06-24T00:41:53;16.20;;;10.30;;
20894;SDS011;10607;42.066;24.742;2023-06-24T00:44:18;14.18;;;9.90;;
20894;SDS011;10607;42.066;24.742;2023-06-24T00:46:44;14.13;;;10.55;;
20894;SDS011;10607;42.066;24.742;2023-06-24T00:49:10;11.82;;;9.43;;
20894;SDS011;10607;42.066;24.742;2023-06-24T00:51:39;13.60;;;9.88;;
20894;SDS011;10607;42.066;24.742;2023-06-24T00:54:05;14.70;;;10.10;;
20894;SDS011;10607;42.066;24.742;2023-06-24T00:56:34;12.10;;;9.50;;
20894;SDS011;10607;42.066;24.742;2023-06-24T00:59:03;11.82;;;9.70;;
20894;SDS011;10607;42.066;24.742;2023-06-24T01:01:32;12.13;;;9.80;;
20894;SDS011;10607;42.066;24.742;2023-06-24T01:03:58;23.63;;;8.93;;
20894;SDS011;10607;42.066;24.742;2023-06-24T01:06:24;11.10;;;9.93;;
20894;SDS011;10607;42.066;24.742;2023-06-24T01:08:53;13.07;;;9.25;;
20894;SDS011;10607;42.066;24.742;2023-06-24T01:11:21;21.05;;;10.43;;
20894;SDS011;10607;42.066;24.742;2023-06-24T01:13:46;12.27;;;9.13;;
20894;SDS011;10607;42.066;24.742;2023-06-24T01:16:14;12.52;;;9.75;;
20894;SDS011;10607;42.066;24.742;2023-06-24T01:18:45;16.40;;;10.15;;
20894;SDS011;10607;42.066;24.742;2023-06-24T01:28:41;12.82;;;9.30;;
20894;SDS011;10607;42.066;24.742;2023-06-24T01:33:46;11.45;;;9.63;;
20894;SDS011;10607;42.066;24.742;2023-06-24T01:36:15;13.63;;;9.45;;
20894;SDS011;10607;42.066;24.742;2023-06-24T01:38:52;14.70;;;9.60;;
20894;SDS011;10607;42.066;24.742;2023-06-24T01:41:20;11.90;;;10.07;;
20894;SDS011;10607;42.066;24.742;2023-06-24T01:43:46;12.98;;;9.15;;
20894;SDS011;10607;42.066;24.742;2023-06-24T01:46:12;17.05;;;9.13;;
20894;SDS011;10607;42.066;24.742;2023-06-24T01:48:39;15.23;;;10.02;;
20894;SDS011;10607;42.066;24.742;2023-06-24T01:51:09;12.63;;;9.50;;
20894;SDS011;10607;42.066;24.742;2023-06-24T01:53:36;13.88;;;9.38;;
20894;SDS011;10607;42.066;24.742;2023-06-24T01:56:05;18.08;;;9.77;;
20894;SDS011;10607;42.066;24.742;2023-06-24T01:58:31;13.07;;;10.07;;
20894;SDS011;10607;42.066;24.742;2023-06-24T02:00:57;11.38;;;10.13;;
20894;SDS011;10607;42.066;24.742;2023-06-24T02:03:23;14.23;;;10.77;;
20894;SDS011;10607;42.066;24.742;2023-06-24T02:05:50;13.52;;;10.70;;
20894;SDS011;10607;42.066;24.742;2023-06-24T02:08:16;11.82;;;10.05;;
20894;SDS011;10607;42.066;24.742;2023-06-24T02:10:42;14.70;;;10.85;;
20894;SDS011;10607;42.066;24.742;2023-06-24T02:13:09;13.60;;;11.30;;
20894;SDS011;10607;42.066;24.742;2023-06-24T02:15:35;15.35;;;11.00;;
20894;SDS011;10607;42.066;24.742;2023-06-24T02:18:02;17.10;;;11.02;;
20894;SDS011;10607;42.066;24.742;2023-06-24T02:20:28;14.75;;;11.27;;
20894;SDS011;10607;42.066;24.742;2023-06-24T02:22:55;16.92;;;10.90;;
20894;SDS011;10607;42.066;24.742;2023-06-24T02:25:20;13.52;;;10.70;;
20894;SDS011;10607;42.066;24.742;2023-06-24T02:27:46;17.35;;;11.77;;
20894;SDS011;10607;42.066;24.742;2023-06-24T02:30:13;16.17;;;11.00;;
20894;SDS011;10607;42.066;24.742;2023-06-24T02:32:39;14.70;;;10.90;;
20894;SDS011;10607;42.066;24.742;2023-06-24T02:35:04;14.98;;;11.73;;
20894;SDS011;10607;42.066;24.742;2023-06-24T02:37:30;14.48;;;11.38;;
20894;SDS011;10607;42.066;24.742;2023-06-24T02:39:55;14.40;;;12.07;;
20894;SDS011;10607;42.066;24.742;2023-06-24T02:42:21;18.60;;;12.50;;
20894;SDS011;10607;42.066;24.742;2023-06-24T02:44:46;13.45;;;12.00;;
20894;SDS011;10607;42.066;24.742;2023-06-24T02:47:12;13.90;;;11.25;;
20894;SDS011;10607;42.066;24.742;2023-06-24T02:49:39;14.82;;;12.20;;
20894;SDS011;10607;42.066;24.742;2023-06-24T02:52:05;17.23;;;12.20;;
20894;SDS011;10607;42.066;24.742;2023-06-24T02:54:30;17.05;;;11.75;;
20894;SDS011;10607;42.066;24.742;2023-06-24T02:56:56;16.63;;;12.45;;
20894;SDS011;10607;42.066;24.742;2023-06-24T02:59:26;15.73;;;12.32;;
20894;SDS011;10607;42.066;24.742;2023-06-24T03:01:51;14.98;;;12.32;;
20894;SDS011;10607;42.066;24.742;2023-06-24T03:04:18;14.07;;;11.80;;
20894;SDS011;10607;42.066;24.742;2023-06-24T03:06:44;13.13;;;11.73;;
20894;SDS011;10607;42.066;24.742;2023-06-24T03:09:09;15.70;;;12.20;;
20894;SDS011;10607;42.066;24.742;2023-06-24T03:11:41;14.57;;;11.70;;
20894;SDS011;10607;42.066;24.742;2023-06-24T03:14:06;14.00;;;12.10;;
20894;SDS011;10607;42.066;24.742;2023-06-24T03:16:32;19.73;;;12.93;;
20894;SDS011;10607;42.066;24.742;2023-06-24T03:18:57;14.73;;;12.77;;
20894;SDS011;10607;42.066;24.742;2023-06-24T03:21:22;17.17;;;12.77;;
20894;SDS011;10607;42.066;24.742;2023-06-24T03:23:53;19.05;;;12.68;;
20894;SDS011;10607;42.066;24.742;2023-06-24T03:26:18;15.43;;;12.63;;
20894;SDS011;10607;42.066;24.742;2023-06-24T03:28:43;17.27;;;11.98;;
20894;SDS011;10607;42.066;24.742;2023-06-24T03:31:09;14.50;;;11.57;;
20894;SDS011;10607;42.066;24.742;2023-06-24T03:33:34;17.77;;;12.55;;
20894;SDS011;10607;42.066;24.742;2023-06-24T03:35:59;16.05;;;12.13;;
20894;SDS011;10607;42.066;24.742;2023-06-24T03:38:25;24.30;;;12.75;;
20894;SDS011;10607;42.066;24.742;2023-06-24T03:40:50;18.55;;;13.25;;
20894;SDS011;10607;42.066;24.742;2023-06-24T03:43:15;17.85;;;12.80;;
20894;SDS011;10607;42.066;24.742;2023-06-24T03:45:41;16.45;;;12.85;;
20894;SDS011;10607;42.066;24.742;2023-06-24T03:48:06;15.98;;;12.68;;
20894;SDS011;10607;42.066;24.742;2023-06-24T03:50:31;20.48;;;12.38;;
20894;SDS011;10607;42.066;24.742;2023-06-24T03:52:56;15.93;;;12.02;;
20894;SDS011;10607;42.066;24.742;2023-06-24T03:55:22;15.68;;;11.90;;
20894;SDS011;10607;42.066;24.742;2023-06-24T03:57:47;18.83;;;12.48;;
20894;SDS011;10607;42.066;24.742;2023-06-24T04:00:12;18.38;;;13.30;;
20894;SDS011;10607;42.066;24.742;2023-06-24T04:02:41;17.48;;;12.98;;
20894;SDS011;10607;42.066;24.742;2023-06-24T04:05:07;18.20;;;13.50;;
20894;SDS011;10607;42.066;24.742;2023-06-24T04:07:32;20.20;;;12.50;;
20894;SDS011;10607;42.066;24.742;2023-06-24T04:09:57;15.70;;;11.00;;
20894;SDS011;10607;42.066;24.742;2023-06-24T04:12:23;15.60;;;11.85;;
20894;SDS011;10607;42.066;24.742;2023-06-24T04:14:48;20.73;;;13.13;;
20894;SDS011;10607;42.066;24.742;2023-06-24T04:17:14;15.10;;;11.50;;
20894;SDS011;10607;42.066;24.742;2023-06-24T04:19:39;17.75;;;10.45;;
20894;SDS011;10607;42.066;24.742;2023-06-24T04:22:04;17.77;;;9.68;;
20894;SDS011;10607;42.066;24.742;2023-06-24T04:24:30;13.40;;;9.55;;
20894;SDS011;10607;42.066;24.742;2023-06-24T04:26:55;18.95;;;10.43;;
20894;SDS011;10607;42.066;24.742;2023-06-24T04:29:20;16.45;;;10.27;;
20894;SDS011;10607;42.066;24.742;2023-06-24T04:31:45;19.15;;;9.90;;
20894;SDS011;10607;42.066;24.742;2023-06-24T04:34:11;12.88;;;10.63;;
20894;SDS011;10607;42.066;24.742;2023-06-24T04:36:37;14.32;;;10.90;;
20894;SDS011;10607;42.066;24.742;2023-06-24T04:39:03;19.02;;;10.68;;
20894;SDS011;10607;42.066;24.742;2023-06-24T04:41:29;13.25;;;10.18;;
20894;SDS011;10607;42.066;24.742;2023-06-24T04:43:54;15.98;;;10.90;;
20894;SDS011;10607;42.066;24.742;2023-06-24T04:46:19;12.77;;;10.25;;
20894;SDS011;10607;42.066;24.742;2023-06-24T04:48:45;16.95;;;10.88;;
20894;SDS011;10607;42.066;24.742;2023-06-24T04:51:10;17.15;;;10.43;;
20894;SDS011;10607;42.066;24.742;2023-06-24T04:53:35;14.40;;;11.10;;
20894;SDS011;10607;42.066;24.742;2023-06-24T04:56:01;13.68;;;10.68;;
20894;SDS011;10607;42.066;24.742;2023-06-24T04:58:26;17.55;;;11.25;;
20894;SDS011;10607;42.066;24.742;2023-06-24T05:00:51;24.00;;;10.88;;
20894;SDS011;10607;42.066;24.742;2023-06-24T05:03:16;13.65;;;11.02;;
20894;SDS011;10607;42.066;24.742;2023-06-24T05:05:42;13.93;;;10.65;;
20894;SDS011;10607;42.066;24.742;2023-06-24T05:08:07;18.33;;;11.73;;
20894;SDS011;10607;42.066;24.742;2023-06-24T05:10:32;19.20;;;11.45;;
20894;SDS011;10607;42.066;24.742;2023-06-24T05:12:57;18.80;;;12.40;;
20894;SDS011;10607;42.066;24.742;2023-06-24T05:15:23;19.50;;;12.25;;
20894;SDS011;10607;42.066;24.742;2023-06-24T05:17:48;15.02;;;11.48;;
20894;SDS011;10607;42.066;24.742;2023-06-24T05:20:13;16.83;;;12.15;;
20894;SDS011;10607;42.066;24.742;2023-06-24T05:22:39;21.30;;;13.05;;
20894;SDS011;10607;42.066;24.742;2023-06-24T05:25:04;20.35;;;13.13;;
20894;SDS011;10607;42.066;24.742;2023-06-24T05:27:29;16.58;;;13.38;;
20894;SDS011;10607;42.066;24.742;2023-06-24T05:29:55;16.27;;;11.93;;
20894;SDS011;10607;42.066;24.742;2023-06-24T05:32:20;14.30;;;12.35;;
20894;SDS011;10607;42.066;24.742;2023-06-24T05:34:46;15.23;;;12.48;;
20894;SDS011;10607;42.066;24.742;2023-06-24T05:37:11;14.85;;;12.68;;
20894;SDS011;10607;42.066;24.742;2023-06-24T05:39:36;15.80;;;11.93;;
20894;SDS011;10607;42.066;24.742;2023-06-24T05:42:02;16.08;;;12.45;;
20894;SDS011;10607;42.066;24.742;2023-06-24T05:44:27;23.80;;;12.43;;
20894;SDS011;10607;42.066;24.742;2023-06-24T05:46:52;18.83;;;13.88;;
20894;SDS011;10607;42.066;24.742;2023-06-24T05:49:17;19.63;;;14.25;;
20894;SDS011;10607;42.066;24.742;2023-06-24T05:51:43;20.13;;;14.32;;
20894;SDS011;10607;42.066;24.742;2023-06-24T05:54:08;21.23;;;13.95;;
20894;SDS011;10607;42.066;24.742;2023-06-24T05:56:33;17.25;;;12.60;;
20894;SDS011;10607;42.066;24.742;2023-06-24T05:58:59;21.77;;;14.68;;
20894;SDS011;10607;42.066;24.742;2023-06-24T06:01:24;19.25;;;14.57;;
20894;SDS011;10607;42.066;24.742;2023-06-24T06:03:49;19.88;;;14.43;;
20894;SDS011;10607;42.066;24.742;2023-06-24T06:06:14;23.65;;;14.10;;
20894;SDS011;10607;42.066;24.742;2023-06-24T06:08:40;19.05;;;13.45;;
20894;SDS011;10607;42.066;24.742;2023-06-24T06:11:06;18.88;;;14.02;;
20894;SDS011;10607;42.066;24.742;2023-06-24T06:13:31;17.30;;;14.45;;
20894;SDS011;10607;42.066;24.742;2023-06-24T06:15:57;21.65;;;14.20;;
20894;SDS011;10607;42.066;24.742;2023-06-24T06:18:22;20.23;;;13.23;;
20894;SDS011;10607;42.066;24.742;2023-06-24T06:20:47;17.70;;;13.35;;
20894;SDS011;10607;42.066;24.742;2023-06-24T06:23:13;23.60;;;13.63;;
20894;SDS011;10607;42.066;24.742;2023-06-24T06:25:38;15.23;;;13.18;;
20894;SDS011;10607;42.066;24.742;2023-06-24T06:28:03;17.13;;;13.95;;
20894;SDS011;10607;42.066;24.742;2023-06-24T06:30:29;17.10;;;14.00;;
20894;SDS011;10607;42.066;24.742;2023-06-24T06:32:54;23.50;;;13.57;;
20894;SDS011;10607;42.066;24.742;2023-06-24T06:35:20;17.52;;;14.13;;
20894;SDS011;10607;42.066;24.742;2023-06-24T06:37:45;16.55;;;12.52;;
20894;SDS011;10607;42.066;24.742;2023-06-24T06:40:12;19.52;;;14.38;;
20894;SDS011;10607;42.066;24.742;2023-06-24T06:42:38;17.80;;;14.25;;
20894;SDS011;10607;42.066;24.742;2023-06-24T06:45:03;20.33;;;14.23;;
20894;SDS011;10607;42.066;24.742;2023-06-24T06:47:28;19.92;;;13.25;;
20894;SDS011;10607;42.066;24.742;2023-06-24T06:49:54;23.60;;;14.77;;
20894;SDS011;10607;42.066;24.742;2023-06-24T06:52:19;21.63;;;14.77;;
20894;SDS011;10607;42.066;24.742;2023-06-24T06:54:44;19.48;;;14.25;;
20894;SDS011;10607;42.066;24.742;2023-06-24T06:57:10;17.77;;;14.00;;
20894;SDS011;10607;42.066;24.742;2023-06-24T06:59:35;20.83;;;13.82;;
20894;SDS011;10607;42.066;24.742;2023-06-24T07:02:00;17.67;;;14.02;;
20894;SDS011;10607;42.066;24.742;2023-06-24T07:04:26;20.83;;;14.02;;
20894;SDS011;10607;42.066;24.742;2023-06-24T07:06:51;16.92;;;13.60;;
20894;SDS011;10607;42.066;24.742;2023-06-24T07:09:16;17.13;;;14.23;;
20894;SDS011;10607;42.066;24.742;2023-06-24T07:11:42;20.67;;;13.93;;
20894;SDS011;10607;42.066;24.742;2023-06-24T07:14:07;14.80;;;13.20;;
20894;SDS011;10607;42.066;24.742;2023-06-24T07:16:32;26.80;;;13.75;;
20894;SDS011;10607;42.066;24.742;2023-06-24T07:18:58;14.95;;;13.32;;
20894;SDS011;10607;42.066;24.742;2023-06-24T07:21:23;15.43;;;13.25;;
20894;SDS011;10607;42.066;24.742;2023-06-24T07:23:48;17.02;;;13.88;;
20894;SDS011;10607;42.066;24.742;2023-06-24T07:26:14;19.67;;;14.73;;
20894;SDS011;10607;42.066;24.742;2023-06-24T07:28:39;17.95;;;15.35;;
20894;SDS011;10607;42.066;24.742;2023-06-24T07:31:04;25.20;;;14.18;;
20894;SDS011;10607;42.066;24.742;2023-06-24T07:33:29;22.27;;;13.35;;
20894;SDS011;10607;42.066;24.742;2023-06-24T07:35:56;17.98;;;14.30;;
20894;SDS011;10607;42.066;24.742;2023-06-24T07:38:21;20.92;;;14.13;;
20894;SDS011;10607;42.066;24.742;2023-06-24T07:40:46;23.13;;;14.57;;
20894;SDS011;10607;42.066;24.742;2023-06-24T07:43:12;21.85;;;14.60;;
20894;SDS011;10607;42.066;24.742;2023-06-24T07:45:37;19.08;;;14.27;;
20894;SDS011;10607;42.066;24.742;2023-06-24T07:48:02;20.50;;;15.18;;
20894;SDS011;10607;42.066;24.742;2023-06-24T07:50:28;20.15;;;14.05;;
20894;SDS011;10607;42.066;24.742;2023-06-24T07:52:53;23.27;;;13.70;;
20894;SDS011;10607;42.066;24.742;2023-06-24T07:55:18;17.40;;;13.25;;
20894;SDS011;10607;42.066;24.742;2023-06-24T07:57:46;20.65;;;13.70;;
20894;SDS011;10607;42.066;24.742;2023-06-24T08:00:12;19.08;;;12.98;;
20894;SDS011;10607;42.066;24.742;2023-06-24T08:02:38;23.77;;;14.35;;
20894;SDS011;10607;42.066;24.742;2023-06-24T08:05:03;18.45;;;13.15;;
20894;SDS011;10607;42.066;24.742;2023-06-24T08:07:28;16.17;;;13.88;;
20894;SDS011;10607;42.066;24.742;2023-06-24T08:09:54;22.27;;;13.70;;
20894;SDS011;10607;42.066;24.742;2023-06-24T08:12:19;17.85;;;14.48;;
20894;SDS011;10607;42.066;24.742;2023-06-24T08:14:44;19.58;;;13.20;;
20894;SDS011;10607;42.066;24.742;2023-06-24T08:17:09;21.20;;;14.52;;
20894;SDS011;10607;42.066;24.742;2023-06-24T08:19:35;21.02;;;15.60;;
20894;SDS011;10607;42.066;24.742;2023-06-24T08:22:00;17.15;;;14.38;;
20894;SDS011;10607;42.066;24.742;2023-06-24T08:24:25;22.30;;;15.10;;
20894;SDS011;10607;42.066;24.742;2023-06-24T08:26:51;19.67;;;13.77;;
20894;SDS011;10607;42.066;24.742;2023-06-24T08:29:18;20.02;;;13.77;;
20894;SDS011;10607;42.066;24.742;2023-06-24T08:31:43;17.60;;;13.93;;
20894;SDS011;10607;42.066;24.742;2023-06-24T08:34:08;20.05;;;13.32;;
20894;SDS011;10607;42.066;24.742;2023-06-24T08:36:33;19.85;;;13.13;;
20894;SDS011;10607;42.066;24.742;2023-06-24T08:38:59;17.33;;;12.55;;
20894;SDS011;10607;42.066;24.742;2023-06-24T08:41:24;22.58;;;13.10;;
20894;SDS011;10607;42.066;24.742;2023-06-24T08:43:53;18.48;;;13.50;;
20894;SDS011;10607;42.066;24.742;2023-06-24T08:46:19;17.60;;;13.40;;
20894;SDS011;10607;42.066;24.742;2023-06-24T08:48:44;22.35;;;14.05;;
20894;SDS011;10607;42.066;24.742;2023-06-24T08:51:10;19.60;;;13.88;;
20894;SDS011;10607;42.066;24.742;2023-06-24T08:53:37;19.45;;;13.52;;
20894;SDS011;10607;42.066;24.742;2023-06-24T08:56:04;25.05;;;14.02;;
20894;SDS011;10607;42.066;24.742;2023-06-24T08:58:29;17.13;;;13.00;;
20894;SDS011;10607;42.066;24.742;2023-06-24T09:00:54;17.38;;;13.23;;
20894;SDS011;10607;42.066;24.742;2023-06-24T09:03:21;21.63;;;13.25;;
20894;SDS011;10607;42.066;24.742;2023-06-24T09:05:46;17.27;;;13.20;;
20894;SDS011;10607;42.066;24.742;2023-06-24T09:08:13;18.25;;;12.70;;
20894;SDS011;10607;42.066;24.742;2023-06-24T09:10:38;18.85;;;13.70;;
20894;SDS011;10607;42.066;24.742;2023-06-24T09:13:04;15.15;;;11.65;;
20894;SDS011;10607;42.066;24.742;2023-06-24T09:15:37;17.55;;;11.57;;
20894;SDS011;10607;42.066;24.742;2023-06-24T09:18:03;16.88;;;12.00;;
20894;SDS011;10607;42.066;24.742;2023-06-24T09:20:29;16.42;;;12.55;;
20894;SDS011;10607;42.066;24.742;2023-06-24T09:23:01;17.77;;;11.63;;
20894;SDS011;10607;42.066;24.742;2023-06-24T09:25:27;19.95;;;11.98;;
20894;SDS011;10607;42.066;24.742;2023-06-24T09:27:52;16.27;;;12.52;;
20894;SDS011;10607;42.066;24.742;2023-06-24T09:30:18;17.00;;;12.02;;
20894;SDS011;10607;42.066;24.742;2023-06-24T09:32:47;13.38;;;11.13;;
20894;SDS011;10607;42.066;24.742;2023-06-24T09:35:13;16.05;;;9.75;;
20894;SDS011;10607;42.066;24.742;2023-06-24T09:37:38;12.00;;;9.95;;
20894;SDS011;10607;42.066;24.742;2023-06-24T09:40:04;16.05;;;10.07;;
20894;SDS011;10607;42.066;24.742;2023-06-24T09:42:31;19.98;;;10.38;;
20894;SDS011;10607;42.066;24.742;2023-06-24T09:44:56;11.55;;;10.15;;
20894;SDS011;10607;42.066;24.742;2023-06-24T09:47:22;22.33;;;11.25;;
20894;SDS011;10607;42.066;24.742;2023-06-24T09:49:52;19.92;;;11.57;;
20894;SDS011;10607;42.066;24.742;2023-06-24T09:52:17;13.85;;;9.75;;
20894;SDS011;10607;42.066;24.742;2023-06-24T09:54:44;15.65;;;11.13;;
20894;SDS011;10607;42.066;24.742;2023-06-24T09:57:11;17.50;;;10.05;;
20894;SDS011;10607;42.066;24.742;2023-06-24T09:59:38;15.75;;;10.95;;
20894;SDS011;10607;42.066;24.742;2023-06-24T10:02:04;12.30;;;10.18;;
20894;SDS011;10607;42.066;24.742;2023-06-24T10:04:31;12.73;;;10.50;;
20894;SDS011;10607;42.066;24.742;2023-06-24T10:06:57;15.00;;;10.20;;
20894;SDS011;10607;42.066;24.742;2023-06-24T10:09:23;17.20;;;9.98;;
20894;SDS011;10607;42.066;24.742;2023-06-24T10:11:48;16.85;;;9.93;;
20894;SDS011;10607;42.066;24.742;2023-06-24T10:14:14;10.98;;;9.60;;
20894;SDS011;10607;42.066;24.742;2023-06-24T10:16:40;13.50;;;9.93;;
20894;SDS011;10607;42.066;24.742;2023-06-24T10:19:05;15.93;;;9.52;;
20894;SDS011;10607;42.066;24.742;2023-06-24T10:24:32;15.32;;;10.23;;
20894;SDS011;10607;42.066;24.742;2023-06-24T10:29:57;14.32;;;10.45;;
20894;SDS011;10607;42.066;24.742;2023-06-24T10:32:26;16.73;;;11.10;;
20894;SDS011;10607;42.066;24.742;2023-06-24T10:34:55;18.70;;;11.15;;
20894;SDS011;10607;42.066;24.742;2023-06-24T10:37:21;15.40;;;10.82;;
20894;SDS011;10607;42.066;24.742;2023-06-24T10:39:53;19.20;;;10.32;;
20894;SDS011;10607;42.066;24.742;2023-06-24T10:45:15;15.77;;;10.65;;
20894;SDS011;10607;42.066;24.742;2023-06-24T10:47:40;18.98;;;10.98;;
20894;SDS011;10607;42.066;24.742;2023-06-24T10:50:07;12.77;;;9.68;;
20894;SDS011;10607;42.066;24.742;2023-06-24T10:52:34;12.10;;;9.68;;
20894;SDS011;10607;42.066;24.742;2023-06-24T10:55:02;17.02;;;10.50;;
20894;SDS011;10607;42.066;24.742;2023-06-24T10:57:28;14.90;;;10.10;;
20894;SDS011;10607;42.066;24.742;2023-06-24T10:59:54;17.05;;;10.15;;
20894;SDS011;10607;42.066;24.742;2023-06-24T11:02:24;15.20;;;10.90;;
20894;SDS011;10607;42.066;24.742;2023-06-24T11:04:50;14.50;;;9.65;;
20894;SDS011;10607;42.066;24.742;2023-06-24T11:07:19;12.43;;;10.88;;
20894;SDS011;10607;42.066;24.742;2023-06-24T11:09:55;14.00;;;11.20;;
20894;SDS011;10607;42.066;24.742;2023-06-24T11:12:27;17.10;;;10.40;;
20894;SDS011;10607;42.066;24.742;2023-06-24T11:14:56;13.35;;;10.13;;
20894;SDS011;10607;42.066;24.742;2023-06-24T11:17:21;12.63;;;10.65;;
20894;SDS011;10607;42.066;24.742;2023-06-24T11:19:47;15.45;;;10.45;;
20894;SDS011;10607;42.066;24.742;2023-06-24T11:22:12;17.13;;;10.75;;
20894;SDS011;10607;42.066;24.742;2023-06-24T11:24:37;15.48;;;11.43;;
20894;SDS011;10607;42.066;24.742;2023-06-24T11:27:05;14.32;;;10.23;;
20894;SDS011;10607;42.066;24.742;2023-06-24T11:29:30;18.40;;;11.52;;
20894;SDS011;10607;42.066;24.742;2023-06-24T11:31:56;12.88;;;10.90;;
20894;SDS011;10607;42.066;24.742;2023-06-24T11:34:21;23.08;;;11.00;;
20894;SDS011;10607;42.066;24.742;2023-06-24T11:36:47;14.15;;;10.38;;
20894;SDS011;10607;42.066;24.742;2023-06-24T11:39:34;17.35;;;10.77;;
20894;SDS011;10607;42.066;24.742;2023-06-24T11:41:58;15.18;;;11.10;;
20894;SDS011;10607;42.066;24.742;2023-06-24T11:44:24;12.38;;;10.23;;
20894;SDS011;10607;42.066;24.742;2023-06-24T11:46:49;14.25;;;9.93;;
20894;SDS011;10607;42.066;24.742;2023-06-24T11:49:14;10.95;;;9.75;;
20894;SDS011;10607;42.066;24.742;2023-06-24T11:51:49;12.18;;;10.13;;
20894;SDS011;10607;42.066;24.742;2023-06-24T11:54:18;16.35;;;9.77;;
20894;SDS011;10607;42.066;24.742;2023-06-24T11:56:49;14.07;;;9.23;;
20894;SDS011;10607;42.066;24.742;2023-06-24T11:59:15;13.52;;;9.70;;
20894;SDS011;10607;42.066;24.742;2023-06-24T12:01:44;10.85;;;8.07;;
20894;SDS011;10607;42.066;24.742;2023-06-24T12:04:10;10.35;;;9.25;;
20894;SDS011;10607;42.066;24.742;2023-06-24T12:06:35;12.07;;;8.95;;
20894;SDS011;10607;42.066;24.742;2023-06-24T12:09:00;14.23;;;9.18;;
20894;SDS011;10607;42.066;24.742;2023-06-24T12:11:26;12.75;;;8.93;;
20894;SDS011;10607;42.066;24.742;2023-06-24T12:13:51;13.77;;;8.40;;
20894;SDS011;10607;42.066;24.742;2023-06-24T12:16:16;10.93;;;9.68;;
20894;SDS011;10607;42.066;24.742;2023-06-24T12:18:41;10.85;;;8.80;;
20894;SDS011;10607;42.066;24.742;2023-06-24T12:21:07;9.75;;;8.63;;
20894;SDS011;10607;42.066;24.742;2023-06-24T12:23:32;12.10;;;8.80;;
20894;SDS011;10607;42.066;24.742;2023-06-24T12:25:57;10.52;;;8.93;;
20894;SDS011;10607;42.066;24.742;2023-06-24T12:28:23;10.98;;;8.13;;
20894;SDS011;10607;42.066;24.742;2023-06-24T12:30:48;13.77;;;8.80;;
20894;SDS011;10607;42.066;24.742;2023-06-24T12:33:13;9.98;;;8.13;;
20894;SDS011;10607;42.066;24.742;2023-06-24T12:35:39;9.50;;;8.18;;
20894;SDS011;10607;42.066;24.742;2023-06-24T12:38:04;10.50;;;8.43;;
20894;SDS011;10607;42.066;24.742;2023-06-24T12:40:29;11.70;;;8.60;;
20894;SDS011;10607;42.066;24.742;2023-06-24T12:42:54;10.52;;;8.55;;
20894;SDS011;10607;42.066;24.742;2023-06-24T12:45:22;11.25;;;8.10;;
20894;SDS011;10607;42.066;24.742;2023-06-24T12:47:47;13.35;;;7.75;;
20894;SDS011;10607;42.066;24.742;2023-06-24T12:50:15;14.38;;;8.20;;
20894;SDS011;10607;42.066;24.742;2023-06-24T12:52:40;10.48;;;8.35;;
20894;SDS011;10607;42.066;24.742;2023-06-24T12:55:05;8.75;;;7.47;;
20894;SDS011;10607;42.066;24.742;2023-06-24T12:57:31;9.68;;;6.95;;
20894;SDS011;10607;42.066;24.742;2023-06-24T12:59:56;11.77;;;7.40;;
20894;SDS011;10607;42.066;24.742;2023-06-24T13:02:22;11.32;;;7.57;;
20894;SDS011;10607;42.066;24.742;2023-06-24T13:04:47;10.85;;;7.85;;
20894;SDS011;10607;42.066;24.742;2023-06-24T13:07:12;9.05;;;7.85;;
20894;SDS011;10607;42.066;24.742;2023-06-24T13:09:37;8.65;;;7.60;;
20894;SDS011;10607;42.066;24.742;2023-06-24T13:12:03;9.77;;;7.40;;
20894;SDS011;10607;42.066;24.742;2023-06-24T13:14:29;10.05;;;7.53;;
20894;SDS011;10607;42.066;24.742;2023-06-24T13:16:54;8.93;;;7.53;;
20894;SDS011;10607;42.066;24.742;2023-06-24T13:19:20;9.77;;;7.65;;
20894;SDS011;10607;42.066;24.742;2023-06-24T13:21:46;10.32;;;7.43;;
20894;SDS011;10607;42.066;24.742;2023-06-24T13:24:11;11.32;;;7.75;;
20894;SDS011;10607;42.066;24.742;2023-06-24T13:26:37;12.50;;;7.90;;
20894;SDS011;10607;42.066;24.742;2023-06-24T13:29:03;9.13;;;8.13;;
20894;SDS011;10607;42.066;24.742;2023-06-24T13:31:28;9.35;;;8.18;;
20894;SDS011;10607;42.066;24.742;2023-06-24T13:33:53;11.20;;;8.60;;
20894;SDS011;10607;42.066;24.742;2023-06-24T13:36:29;14.07;;;7.65;;
20894;SDS011;10607;42.066;24.742;2023-06-24T13:38:55;9.60;;;8.25;;
20894;SDS011;10607;42.066;24.742;2023-06-24T13:41:20;9.82;;;8.07;;
20894;SDS011;10607;42.066;24.742;2023-06-24T13:43:45;12.05;;;8.23;;
20894;SDS011;10607;42.066;24.742;2023-06-24T13:46:11;8.82;;;7.93;;
20894;SDS011;10607;42.066;24.742;2023-06-24T13:48:36;11.48;;;8.27;;
20894;SDS011;10607;42.066;24.742;2023-06-24T13:51:01;17.17;;;8.27;;
20894;SDS011;10607;42.066;24.742;2023-06-24T13:53:27;11.13;;;7.90;;
20894;SDS011;10607;42.066;24.742;2023-06-24T13:55:52;11.63;;;7.50;;
20894;SDS011;10607;42.066;24.742;2023-06-24T13:58:17;10.18;;;7.95;;
20894;SDS011;10607;42.066;24.742;2023-06-24T14:00:43;9.85;;;8.20;;
20894;SDS011;10607;42.066;24.742;2023-06-24T14:03:08;8.75;;;7.47;;
20894;SDS011;10607;42.066;24.742;2023-06-24T14:05:33;9.27;;;7.72;;
20894;SDS011;10607;42.066;24.742;2023-06-24T14:07:58;11.63;;;7.60;;
20894;SDS011;10607;42.066;24.742;2023-06-24T14:10:24;11.02;;;7.90;;
20894;SDS011;10607;42.066;24.742;2023-06-24T14:12:49;13.32;;;7.50;;
20894;SDS011;10607;42.066;24.742;2023-06-24T14:15:14;13.40;;;7.70;;
20894;SDS011;10607;42.066;24.742;2023-06-24T14:17:40;8.20;;;7.22;;
20894;SDS011;10607;42.066;24.742;2023-06-24T14:20:05;8.50;;;6.72;;
20894;SDS011;10607;42.066;24.742;2023-06-24T14:22:31;8.77;;;7.88;;
20894;SDS011;10607;42.066;24.742;2023-06-24T14:24:56;13.10;;;8.70;;